Time;durP1;ratioP1;P1;durP2;ratioP2;P2;SDS_P1;SDS_P2;PMS_P1;PMS_P2;Temp;Humidity;BMP_temperature;BMP_pressure;BME280_temperature;BME280_humidity;BME280_pressure;Samples;Min_cycle;Max_cycle;Signal;HPM_P1;HPM_P2
2022/02/12 00:01:26;;;;;;;1.70;1.60;;;;;;;18.11;45.72;98970.22;4874999;29;20333;-85
2022/02/12 00:03:52;;;;;;;1.70;1.60;;;;;;;18.18;45.72;98987.63;4876395;29;20292;-84
2022/02/12 00:06:19;;;;;;;1.70;1.60;;;;;;;18.09;45.40;98961.59;4860056;29;20321;-87
2022/02/12 00:08:45;;;;;;;1.73;1.40;;;;;;;18.50;45.89;99024.53;4875610;29;20244;-85
2022/02/12 00:11:12;;;;;;;2.03;1.83;;;;;;;18.28;45.68;98991.66;4875001;29;20702;-86
2022/02/12 00:13:39;;;;;;;1.87;1.77;;;;;;;18.62;45.44;99054.19;4874832;29;20797;-84
2022/02/12 00:16:05;;;;;;;2.20;1.67;;;;;;;18.48;45.43;99033.72;4860547;29;20313;-85
2022/02/12 00:18:32;;;;;;;2.27;1.90;;;;;;;18.06;45.58;98947.81;4860853;29;20213;-85
2022/02/12 00:20:58;;;;;;;1.80;1.70;;;;;;;18.24;45.53;98985.47;4877304;29;20221;-85
2022/02/12 00:23:25;;;;;;;2.33;1.90;;;;;;;18.39;45.59;99011.09;4885384;29;20312;-84
2022/02/12 00:25:52;;;;;;;1.63;1.53;;;;;;;18.42;45.99;99015.50;4873732;29;20250;-85
2022/02/12 00:28:18;;;;;;;1.90;1.67;;;;;;;18.52;45.62;99033.13;4874721;29;20691;-86
2022/02/12 00:30:45;;;;;;;2.13;1.63;;;;;;;18.22;45.76;98978.53;4875121;29;20211;-84
2022/02/12 00:33:12;;;;;;;1.60;1.50;;;;;;;18.04;46.04;98934.09;4862899;29;20632;-84
2022/02/12 00:35:38;;;;;;;1.70;1.50;;;;;;;18.24;45.68;98974.44;4885993;29;20313;-84
2022/02/12 00:38:05;;;;;;;1.83;1.73;;;;;;;18.55;45.82;99018.03;4874601;29;20207;-85
2022/02/12 00:40:32;;;;;;;1.53;1.43;;;;;;;18.20;45.84;98968.25;4882940;29;20210;-84
2022/02/12 00:42:58;;;;;;;2.03;1.83;;;;;;;18.29;45.81;98972.19;4880623;29;20301;-85
2022/02/12 00:45:25;;;;;;;1.97;1.80;;;;;;;18.60;45.88;99021.78;4880661;29;20313;-86
2022/02/12 00:47:52;;;;;;;2.17;1.67;;;;;;;18.68;45.76;99035.88;4910171;29;20202;-85
2022/02/12 00:50:18;;;;;;;2.13;1.87;;;;;;;18.04;45.71;98929.00;4895442;29;20214;-84
2022/02/12 00:52:45;;;;;;;1.90;1.60;;;;;;;18.67;45.81;99044.28;4864811;29;20417;-84
2022/02/12 00:55:11;;;;;;;2.03;1.80;;;;;;;18.32;45.62;98985.97;4878915;29;20317;-84
2022/02/12 00:57:38;;;;;;;2.13;1.80;;;;;;;18.42;46.28;99000.22;4888545;29;20289;-85
2022/02/12 01:00:06;;;;;;;1.50;1.40;;;;;;;17.97;45.85;98926.84;4865533;29;20206;-84
2022/02/12 01:02:32;;;;;;;3.63;2.07;;;;;;;18.35;45.83;98992.94;4878187;29;20274;-87
2022/02/12 01:04:59;;;;;;;1.97;1.70;;;;;;;18.36;45.73;98998.13;4878222;29;20222;-85
2022/02/12 01:07:25;;;;;;;1.80;1.70;;;;;;;18.65;46.05;99053.50;4893693;29;20343;-84
2022/02/12 01:36:53;;;;;;;2.10;1.80;;;;;;;12.78;46.11;98032.06;5345876;23;20246;-85
2022/02/12 01:39:23;;;;;;;2.10;1.77;;;;;;;14.39;46.05;98362.75;4878243;29;20194;-85
2022/02/12 01:41:49;;;;;;;2.00;1.80;;;;;;;17.70;45.67;98953.88;4863623;29;20658;-84
2022/02/12 01:44:30;;;;;;;1.80;1.70;;;;;;;18.13;46.26;98930.50;4872882;29;20203;-86
2022/02/12 01:47:00;;;;;;;1.73;1.60;;;;;;;14.36;45.87;98365.06;4882420;29;20233;-86
2022/02/12 01:49:28;;;;;;;1.83;1.73;;;;;;;15.50;45.75;98541.88;4874269;29;20727;-86
2022/02/12 01:51:55;;;;;;;2.20;1.90;;;;;;;10.86;45.73;97702.47;4876829;29;20225;-87
2022/02/12 01:54:35;;;;;;;2.37;1.73;;;;;;;10.34;45.70;97639.13;4876767;29;20250;-87
2022/02/12 01:57:03;;;;;;;1.70;1.60;;;;;;;14.60;45.56;98341.47;4893496;29;20258;-87
2022/02/12 01:59:34;;;;;;;1.70;1.60;;;;;;;14.43;45.42;98268.66;4863443;29;20207;-83
2022/02/12 02:02:01;;;;;;;1.73;1.60;;;;;;;14.25;45.83;98340.69;4869708;29;20202;-86
2022/02/12 02:04:28;;;;;;;2.10;2.00;;;;;;;13.08;45.53;98035.94;4888159;29;20238;-86
2022/02/12 02:06:58;;;;;;;1.90;1.70;;;;;;;14.76;45.62;98400.72;4874945;29;20221;-86
2022/02/12 02:09:26;;;;;;;1.90;1.80;;;;;;;13.05;45.84;98025.63;4889157;29;20282;-85
2022/02/12 02:11:53;;;;;;;1.90;1.80;;;;;;;14.45;46.00;98375.81;4888117;29;20329;-86
2022/02/12 02:14:29;;;;;;;1.70;1.60;;;;;;;11.60;46.04;97790.88;4880707;29;20206;-86
2022/02/12 02:16:56;;;;;;;1.70;1.60;;;;;;;16.07;46.10;98654.84;4862285;29;20267;-86
2022/02/12 02:19:23;;;;;;;1.90;1.80;;;;;;;13.84;45.68;98149.91;4877509;29;20217;-87
2022/02/12 02:21:56;;;;;;;2.07;1.80;;;;;;;14.80;46.12;98413.69;4868800;29;20211;-87
2022/02/12 02:24:23;;;;;;;3.07;2.10;;;;;;;13.20;45.63;98074.66;4889921;29;20668;-87
2022/02/12 02:27:13;;;;;;;2.30;1.83;;;;;;;17.17;46.20;98791.81;4853784;29;20226;-86
2022/02/12 02:29:57;;;;;;;1.87;1.73;;;;;;;13.34;45.52;98153.06;4869851;29;20665;-86
2022/02/12 02:32:26;;;;;;;1.77;1.60;;;;;;;12.35;45.82;97892.03;4882036;29;20218;-85
2022/02/12 02:34:54;;;;;;;1.90;1.67;;;;;;;10.75;46.27;97619.50;4870955;29;20225;-86
2022/02/12 02:37:22;;;;;;;2.20;2.00;;;;;;;11.13;45.57;97696.91;4881676;29;20206;-86
2022/02/12 02:39:57;;;;;;;2.20;1.90;;;;;;;11.85;46.16;97852.34;4880377;29;20630;-85
2022/02/12 02:42:24;;;;;;;2.10;1.90;;;;;;;14.55;45.89;98370.66;4874318;29;20198;-85
2022/02/12 02:44:51;;;;;;;1.80;1.70;;;;;;;14.52;45.70;98389.78;4884259;29;20279;-86
2022/02/12 02:47:35;;;;;;;2.77;1.90;;;;;;;13.05;45.76;98031.53;4868442;29;20223;-86
2022/02/12 02:55:59;;;;;;;1.90;1.80;;;;;;;11.20;45.94;97697.34;4867346;29;20214;-86
2022/02/12 02:56:05;;;;;;;1.90;1.80;;;;;;;14.52;46.16;98268.38;4882784;29;20229;-86
2022/02/12 02:58:59;;;;;;;2.03;1.83;;;;;;;12.00;45.77;97850.91;4901769;29;20213;-87
2022/02/12 03:01:29;;;;;;;1.77;1.67;;;;;;;14.53;45.86;98320.72;4889948;29;20202;-85
2022/02/12 03:03:56;;;;;;;2.77;1.80;;;;;;;14.82;46.24;98421.38;4876033;29;20210;-87
2022/02/12 03:06:30;;;;;;;2.00;1.87;;;;;;;17.11;46.18;98826.13;4886550;29;20234;-86
2022/02/12 03:08:59;;;;;;;2.07;1.87;;;;;;;17.10;46.40;98825.22;4872691;29;20563;-87
2022/02/12 03:41:08;;;;;;;1.80;1.70;;;;;;;12.15;45.82;97853.63;5837113;23;20665;-86
2022/02/12 03:43:38;;;;;;;2.63;1.80;;;;;;;13.19;45.88;98025.81;4864121;29;20207;-86
2022/02/12 03:46:09;;;;;;;1.70;1.60;;;;;;;13.20;45.94;98025.03;4857422;29;20222;-85
2022/02/12 03:48:41;;;;;;;1.47;1.37;;;;;;;12.14;46.12;97952.66;4888431;29;20263;-86
2022/02/12 03:51:08;;;;;;;2.27;2.07;;;;;;;14.59;46.15;98285.72;4860553;29;20286;-86
2022/02/12 03:53:34;;;;;;;2.23;2.03;;;;;;;17.23;46.04;98789.69;4881043;29;20732;-85
2022/02/12 03:56:01;;;;;;;2.33;1.73;;;;;;;13.47;46.35;98135.47;4847120;29;20279;-85
2022/02/12 03:58:28;;;;;;;1.90;1.70;;;;;;;14.66;46.22;98326.72;4865159;29;20214;-86
2022/02/12 04:00:55;;;;;;;1.60;1.50;;;;;;;14.29;45.94;98260.88;4845175;29;20211;-86
2022/02/12 04:03:22;;;;;;;1.90;1.70;;;;;;;12.84;45.82;97974.50;4854800;29;20208;-86
2022/02/12 04:05:49;;;;;;;1.90;1.63;;;;;;;14.75;46.08;98300.31;4860802;29;20234;-86
2022/02/12 04:08:23;;;;;;;1.83;1.73;;;;;;;12.67;45.81;97949.75;4861334;29;20219;-85
2022/02/12 04:10:52;;;;;;;1.70;1.60;;;;;;;13.72;46.27;98174.31;4850280;29;20191;-84
2022/02/12 04:13:24;;;;;;;2.50;1.90;;;;;;;14.29;45.78;98253.28;4852661;29;20202;-84
2022/02/12 04:15:51;;;;;;;1.73;1.63;;;;;;;14.02;45.86;98221.91;4867667;29;20226;-85
2022/02/12 04:18:22;;;;;;;2.23;1.90;;;;;;;14.09;46.00;98267.03;4863819;29;20199;-85
2022/02/12 04:20:49;;;;;;;1.77;1.67;;;;;;;12.54;45.94;97917.78;4856341;29;20214;-85
2022/02/12 04:23:16;;;;;;;2.10;1.60;;;;;;;17.42;45.88;98789.25;4844669;29;20219;-86
2022/02/12 04:25:43;;;;;;;1.70;1.60;;;;;;;13.30;45.54;98029.06;4846494;29;20291;-86
2022/02/12 04:28:10;;;;;;;2.43;2.00;;;;;;;12.96;45.77;97994.69;4854177;29;20242;-86
2022/02/12 04:30:46;;;;;;;2.50;1.73;;;;;;;14.47;45.92;98249.50;4857122;29;20306;-86
2022/02/12 04:33:13;;;;;;;2.13;1.90;;;;;;;14.33;45.87;98240.97;4865435;29;20234;-86
2022/02/12 04:35:40;;;;;;;2.20;2.00;;;;;;;14.54;45.66;98259.28;4879404;29;20701;-86
2022/02/12 04:38:07;;;;;;;1.80;1.70;;;;;;;16.18;46.25;98607.38;4834017;29;20223;-86
2022/02/12 04:40:36;;;;;;;1.90;1.70;;;;;;;10.37;46.02;97546.41;4832640;29;20215;-86
2022/02/12 04:43:03;;;;;;;2.23;2.03;;;;;;;12.97;46.06;97963.63;4848938;29;20211;-84
2022/02/12 04:45:39;;;;;;;2.00;1.80;;;;;;;12.79;46.07;97980.88;4851273;29;20235;-86
2022/02/12 04:48:18;;;;;;;2.10;1.90;;;;;;;13.23;45.97;98090.00;4849038;29;20310;-86
2022/02/12 04:50:44;;;;;;;2.00;1.83;;;;;;;10.74;45.98;97588.47;4845531;29;20208;-86
2022/02/12 04:53:11;;;;;;;2.20;2.00;;;;;;;14.63;45.88;98298.69;4852279;29;20207;-86
2022/02/12 04:55:38;;;;;;;2.33;2.10;;;;;;;16.18;45.92;98597.25;4863983;29;20314;-86
2022/02/12 04:58:07;;;;;;;1.90;1.80;;;;;;;13.09;45.94;98063.78;4879576;29;20202;-84
2022/02/12 05:00:34;;;;;;;1.67;1.57;;;;;;;11.73;45.83;97745.72;4848185;29;20203;-86
2022/02/12 05:03:03;;;;;;;1.90;1.80;;;;;;;12.45;46.04;97893.56;4858715;29;20215;-86
2022/02/12 05:05:30;;;;;;;2.27;2.07;;;;;;;16.29;46.45;98546.44;4844729;29;20239;-86
2022/02/12 05:07:59;;;;;;;2.23;1.73;;;;;;;14.41;46.27;98343.53;4845327;29;20224;-86
2022/02/12 05:10:26;;;;;;;2.20;1.80;;;;;;;14.72;46.12;98279.84;4844990;29;20204;-86
2022/02/12 05:12:55;;;;;;;2.20;1.90;;;;;;;13.28;45.96;98007.88;4845576;29;20211;-87
2022/02/12 05:15:22;;;;;;;1.90;1.80;;;;;;;11.06;46.00;97651.09;4830481;29;20690;-86
2022/02/12 05:17:53;;;;;;;1.80;1.70;;;;;;;13.14;45.92;98042.25;4862169;29;20248;-86
2022/02/12 05:20:20;;;;;;;1.83;1.63;;;;;;;11.84;46.16;97780.06;4848807;29;20207;-86
2022/02/12 05:22:47;;;;;;;2.00;1.80;;;;;;;14.46;46.02;98230.03;4844920;29;20216;-86
2022/02/12 05:25:14;;;;;;;2.10;1.90;;;;;;;13.90;45.81;98106.50;4845263;29;20224;-86
2022/02/12 05:27:41;;;;;;;1.77;1.67;;;;;;;12.60;45.92;97950.09;4844697;29;20234;-87
2022/02/12 05:30:10;;;;;;;2.23;1.63;;;;;;;16.06;46.38;98530.50;4833330;29;20207;-86
2022/02/12 05:32:39;;;;;;;2.27;1.80;;;;;;;16.88;46.42;98692.53;4862332;29;20213;-86
2022/02/12 05:35:09;;;;;;;2.03;1.90;;;;;;;14.24;46.22;98201.56;4830850;29;20220;-86
2022/02/12 05:37:36;;;;;;;1.80;1.70;;;;;;;13.52;46.00;98040.75;4844921;29;20215;-86
2022/02/12 05:40:12;;;;;;;2.10;1.90;;;;;;;12.49;46.18;97893.91;4859996;29;20258;-86
2022/02/12 05:42:42;;;;;;;1.83;1.67;;;;;;;16.04;46.43;98527.88;4844602;29;20223;-86
2022/02/12 05:45:12;;;;;;;1.87;1.77;;;;;;;14.29;46.29;98238.13;4865085;29;20227;-86
2022/02/12 05:47:40;;;;;;;2.10;1.87;;;;;;;12.12;46.22;97879.50;4862524;29;20234;-86
2022/02/12 05:50:07;;;;;;;2.07;1.90;;;;;;;11.46;45.91;97674.94;4867276;29;20204;-85
2022/02/12 05:52:34;;;;;;;1.93;1.70;;;;;;;12.95;46.39;98049.28;4860595;29;20207;-86
2022/02/12 05:55:03;;;;;;;1.73;1.63;;;;;;;11.77;45.99;97754.34;4877725;29;20570;-86
2022/02/12 05:57:30;;;;;;;1.80;1.70;;;;;;;15.02;46.17;98310.63;4860521;29;20207;-86
2022/02/12 06:00:00;;;;;;;2.37;2.10;;;;;;;14.27;46.19;98174.81;4844956;29;20215;-85
2022/02/12 06:02:27;;;;;;;2.53;1.90;;;;;;;12.24;45.68;97898.00;4841456;29;20203;-85
2022/02/12 06:04:55;;;;;;;2.43;1.97;;;;;;;14.36;45.70;98167.84;4842726;29;20326;-84
2022/02/12 06:07:24;;;;;;;2.20;2.00;;;;;;;16.73;45.71;98610.31;4842319;29;20234;-86
2022/02/12 06:09:56;;;;;;;2.90;2.00;;;;;;;15.41;45.90;98347.88;4842010;29;20204;-86
2022/02/12 06:12:37;;;;;;;2.20;2.00;;;;;;;13.04;45.82;97969.25;4841593;29;20848;-87
2022/02/12 06:15:04;;;;;;;1.90;1.70;;;;;;;15.94;45.88;98446.03;4859916;29;20235;-86
2022/02/12 06:17:31;;;;;;;2.67;1.97;;;;;;;15.62;45.72;98387.28;4841152;29;20211;-84
2022/02/12 06:19:58;;;;;;;2.53;2.00;;;;;;;15.57;45.64;98402.19;4877348;29;20278;-85
2022/02/12 06:22:28;;;;;;;2.00;1.90;;;;;;;17.79;46.24;98765.41;4861502;29;20240;-86
2022/02/12 06:24:55;;;;;;;2.00;1.80;;;;;;;17.35;45.82;98693.06;4846577;29;20294;-86
2022/02/12 06:27:22;;;;;;;2.13;1.90;;;;;;;18.34;45.95;98872.44;4844840;29;20223;-87
2022/02/12 06:29:49;;;;;;;2.13;1.93;;;;;;;18.55;45.70;98904.38;4858826;29;20219;-86
2022/02/12 06:32:16;;;;;;;1.80;1.70;;;;;;;17.35;46.10;98713.41;4853253;29;20288;-87
2022/02/12 06:34:42;;;;;;;1.80;1.70;;;;;;;17.76;46.04;98763.56;4872890;29;20284;-85
2022/02/12 06:37:09;;;;;;;2.00;1.80;;;;;;;17.66;45.75;98746.00;4859655;29;20251;-86
2022/02/12 06:39:36;;;;;;;2.40;1.80;;;;;;;17.67;45.83;98750.28;4851205;29;20219;-85
2022/02/12 06:42:03;;;;;;;2.37;2.10;;;;;;;18.17;46.17;98835.75;4871729;29;20215;-86
2022/02/12 06:44:30;;;;;;;2.13;1.93;;;;;;;17.93;46.15;98785.88;4869801;29;20281;-86
2022/02/12 06:46:56;;;;;;;2.20;2.00;;;;;;;18.22;46.05;98841.13;4858351;29;20207;-86
2022/02/12 06:49:23;;;;;;;2.13;1.93;;;;;;;18.30;46.45;98849.25;4859161;29;20301;-86
2022/02/12 06:51:50;;;;;;;2.53;2.30;;;;;;;17.97;45.90;98794.59;4839654;29;20239;-84
2022/02/12 06:54:16;;;;;;;2.20;2.00;;;;;;;17.84;45.99;98762.41;4857648;29;20207;-85
2022/02/12 06:56:43;;;;;;;2.20;2.00;;;;;;;18.55;46.11;98883.09;4876976;29;20297;-86
2022/02/12 06:59:10;;;;;;;1.90;1.80;;;;;;;17.13;46.16;98645.09;4845593;29;20200;-85
2022/02/12 07:01:36;;;;;;;1.90;1.80;;;;;;;17.73;46.13;98731.97;4868011;29;20294;-87
2022/02/12 07:04:05;;;;;;;2.00;1.90;;;;;;;17.84;46.36;98764.94;4853305;29;20255;-86
2022/02/12 07:06:31;;;;;;;1.97;1.77;;;;;;;18.17;46.28;98819.59;4858129;29;20219;-86
2022/02/12 07:09:01;;;;;;;2.10;1.90;;;;;;;17.38;46.28;98688.19;4869102;29;20306;-87
2022/02/12 07:11:27;;;;;;;3.60;2.53;;;;;;;18.11;45.24;98811.56;4875548;29;20267;-85
2022/02/12 07:13:54;;;;;;;5.67;3.90;;;;;;;17.99;42.14;98791.34;4845501;29;20295;-89
2022/02/12 07:16:21;;;;;;;6.40;4.60;;;;;;;17.14;40.52;98649.38;4862471;23;20781;-87
2022/02/12 07:18:48;;;;;;;6.00;4.50;;;;;;;18.14;40.42;98821.94;4855909;29;20236;-87
2022/02/12 07:21:15;;;;;;;6.57;4.77;;;;;;;18.08;40.62;98814.81;4826058;29;20222;-85
2022/02/12 07:23:42;;;;;;;8.33;5.13;;;;;;;18.32;40.79;98856.19;4857126;29;20263;-86
2022/02/12 07:26:09;;;;;;;6.33;4.30;;;;;;;18.15;41.38;98836.44;4838355;29;20319;-85
2022/02/12 07:28:35;;;;;;;5.73;4.50;;;;;;;18.04;41.70;98817.06;4823513;29;20315;-90
2022/02/12 07:31:02;;;;;;;6.03;4.30;;;;;;;17.71;42.10;98766.63;4824956;29;20247;-90
2022/02/12 07:33:29;;;;;;;9.90;4.03;;;;;;;18.18;42.65;98850.22;4810387;29;20247;-90
2022/02/12 07:35:56;;;;;;;6.00;4.13;;;;;;;17.80;42.77;98779.91;4836436;29;20678;-87
2022/02/12 07:38:22;;;;;;;5.13;3.67;;;;;;;17.86;42.88;98790.47;4836773;29;20296;-85
2022/02/12 07:40:49;;;;;;;4.53;3.83;;;;;;;18.23;43.22;98860.69;4822807;29;20303;-83
2022/02/12 07:43:15;;;;;;;5.13;3.70;;;;;;;18.45;43.70;98896.06;4813278;29;20271;-84
2022/02/12 07:45:42;;;;;;;5.13;3.60;;;;;;;17.81;43.91;98780.00;4844170;29;20224;-84
2022/02/12 07:48:10;;;;;;;5.00;4.10;;;;;;;18.28;43.73;98864.41;4827347;29;20317;-86
2022/02/12 07:50:37;;;;;;;4.63;3.77;;;;;;;18.03;43.95;98822.97;4821713;29;20242;-84
2022/02/12 07:53:04;;;;;;;4.70;3.60;;;;;;;18.13;44.34;98835.47;4813402;29;20649;-83
2022/02/12 07:55:31;;;;;;;4.43;3.00;;;;;;;18.31;44.01;98867.16;4824661;29;20268;-82
2022/02/12 07:57:58;;;;;;;4.53;2.87;;;;;;;18.25;44.28;98866.78;4847337;29;20639;-87
2022/02/12 08:00:24;;;;;;;6.60;3.63;;;;;;;18.23;44.56;98868.31;4825282;29;20248;-84
2022/02/12 08:02:54;;;;;;;4.20;3.33;;;;;;;18.26;44.22;98862.56;4822176;29;20624;-84
2022/02/12 08:05:21;;;;;;;4.43;3.37;;;;;;;18.31;44.43;98876.44;4822543;29;20252;-85
2022/02/12 08:07:47;;;;;;;3.57;3.00;;;;;;;17.83;44.66;98806.41;4840418;29;20251;-83
2022/02/12 08:12:59;;;;;;;7.93;5.20;;;;;;;18.33;41.93;98872.34;4834188;29;20251;-83
2022/02/12 08:15:26;;;;;;;8.97;4.60;;;;;;;18.20;42.42;98858.84;4824725;29;20315;-86
2022/02/12 08:17:53;;;;;;;5.30;4.47;;;;;;;18.32;42.50;98880.78;4822495;29;20205;-84
2022/02/12 08:20:19;;;;;;;8.20;4.40;;;;;;;18.27;43.11;98869.41;4821993;29;20303;-84
2022/02/12 08:22:46;;;;;;;5.40;4.57;;;;;;;18.39;43.46;98908.41;4837047;29;20243;-82
2022/02/12 08:25:13;;;;;;;6.20;4.10;;;;;;;18.31;43.36;98892.59;4821961;29;20658;-81
2022/02/12 08:27:39;;;;;;;6.20;3.90;;;;;;;18.27;43.71;98875.38;4810599;29;20312;-84
2022/02/12 08:30:07;;;;;;;4.97;4.13;;;;;;;18.30;43.56;98892.50;4829640;29;20323;-83
2022/02/12 08:32:33;;;;;;;4.80;3.73;;;;;;;18.34;44.07;98874.09;4803559;29;20239;-85
2022/02/12 08:35:00;;;;;;;4.53;3.90;;;;;;;18.38;44.08;98887.13;4815578;29;20252;-83
2022/02/12 08:37:27;;;;;;;5.00;4.17;;;;;;;18.30;44.11;98867.06;4836181;29;20253;-84
2022/02/12 08:39:53;;;;;;;7.67;3.60;;;;;;;18.40;43.74;98889.78;4822020;29;20295;-85
2022/02/12 08:42:20;;;;;;;5.80;3.77;;;;;;;18.34;44.22;98874.09;4831211;29;20244;-87
2022/02/12 08:44:48;;;;;;;4.73;3.83;;;;;;;18.17;44.54;98830.66;4822922;29;20300;-82
2022/02/12 08:47:14;;;;;;;3.80;3.40;;;;;;;18.21;44.48;98852.97;4812009;29;20209;-85
2022/02/12 08:49:42;;;;;;;5.80;3.53;;;;;;;18.16;44.12;98839.09;4826986;29;20241;-83
2022/02/12 08:52:10;;;;;;;5.13;3.43;;;;;;;18.17;44.51;98847.59;4838266;29;20257;-83
2022/02/12 08:54:37;;;;;;;4.57;3.40;;;;;;;18.21;44.17;98836.84;4823993;29;20251;-85
2022/02/12 08:57:04;;;;;;;4.07;3.50;;;;;;;17.89;44.50;98777.97;4838492;29;20205;-85
2022/02/12 08:59:31;;;;;;;4.27;3.50;;;;;;;18.21;44.49;98834.28;4842429;29;20316;-88
2022/02/12 09:02:11;;;;;;;3.70;3.20;;;;;;;18.31;44.41;98845.91;4831692;29;20215;-84
2022/02/12 09:04:38;;;;;;;4.30;3.10;;;;;;;17.93;44.90;98780.78;4857154;29;20323;-86
2022/02/12 09:07:04;;;;;;;3.80;3.17;;;;;;;18.12;45.05;98806.59;4843043;29;20209;-85
2022/02/12 09:09:31;;;;;;;4.10;2.90;;;;;;;18.08;44.99;98794.47;4827786;29;20264;-82
2022/02/12 09:11:58;;;;;;;3.13;2.80;;;;;;;18.17;44.83;98805.22;4820861;29;20240;-86
2022/02/12 09:14:24;;;;;;;4.17;2.90;;;;;;;17.65;45.06;98708.63;4857683;29;20236;-84
2022/02/12 09:16:51;;;;;;;3.27;2.97;;;;;;;18.24;44.73;98812.44;4836674;29;20278;-84
2022/02/12 09:19:20;;;;;;;5.00;3.07;;;;;;;17.83;44.72;98742.81;4856920;29;20303;-84
2022/02/12 09:21:46;;;;;;;3.47;2.87;;;;;;;18.24;44.79;98804.81;4836594;29;20240;-87
2022/02/12 09:24:13;;;;;;;4.60;2.80;;;;;;;18.23;44.72;98803.84;4816417;29;20671;-85
2022/02/12 09:26:40;;;;;;;4.47;3.00;;;;;;;18.28;44.45;98803.34;4815760;29;20259;-84
2022/02/12 09:29:10;;;;;;;3.10;2.80;;;;;;;18.47;44.75;98829.16;4821607;29;20315;-87
2022/02/12 09:31:36;;;;;;;3.20;2.83;;;;;;;17.94;44.79;98740.94;4859610;29;20302;-83
2022/02/12 09:34:03;;;;;;;3.00;2.70;;;;;;;18.31;44.78;98802.63;4844464;29;20213;-87
2022/02/12 09:36:30;;;;;;;4.20;3.60;;;;;;;18.13;44.60;98782.94;4812848;29;20730;-84
2022/02/12 09:38:56;;;;;;;7.10;4.40;;;;;;;17.95;43.03;98738.50;4828216;29;20239;-83
2022/02/12 09:41:25;;;;;;;6.53;3.70;;;;;;;18.12;43.35;98773.50;4827158;29;20240;-85
2022/02/12 09:43:53;;;;;;;5.70;4.00;;;;;;;18.27;43.46;98794.81;4832252;29;20320;-83
2022/02/12 09:46:35;;;;;;;4.87;3.20;;;;;;;18.46;43.68;98832.50;4838601;29;20231;-87
2022/02/12 09:49:02;;;;;;;5.87;3.47;;;;;;;18.38;43.96;98833.69;4823284;29;20264;-85
2022/02/12 09:51:30;;;;;;;4.33;3.50;;;;;;;18.35;44.26;98809.69;4834936;29;20243;-82
2022/02/12 09:53:58;;;;;;;5.63;3.40;;;;;;;18.21;44.09;98788.50;4839322;29;20675;-87
2022/02/12 09:56:25;;;;;;;4.50;3.40;;;;;;;18.31;44.36;98805.19;4841688;29;20353;-83
2022/02/12 09:58:51;;;;;;;5.20;3.53;;;;;;;18.21;44.22;98783.41;4824218;29;20254;-84
2022/02/12 10:01:19;;;;;;;4.03;3.40;;;;;;;18.23;44.52;98784.34;4838841;29;20270;-85
2022/02/12 10:03:46;;;;;;;6.50;3.40;;;;;;;18.25;44.66;98790.44;4842368;29;20204;-85
2022/02/12 10:06:13;;;;;;;4.53;3.40;;;;;;;17.89;44.22;98725.41;4827550;29;20315;-87
2022/02/12 10:08:41;;;;;;;4.37;3.13;;;;;;;18.27;44.65;98784.63;4824627;29;20320;-86
2022/02/12 10:11:13;;;;;;;7.70;3.60;;;;;;;17.98;44.73;98725.13;4827112;29;20269;-90
2022/02/12 10:13:40;;;;;;;5.80;3.00;;;;;;;18.13;44.28;98752.41;4824129;29;20258;-85
2022/02/12 10:16:06;;;;;;;4.73;2.97;;;;;;;18.22;44.69;98762.25;4838179;29;20680;-84
2022/02/12 10:18:36;;;;;;;4.20;3.37;;;;;;;18.31;44.63;98764.47;4836787;29;20212;-85
2022/02/12 10:21:03;;;;;;;4.70;3.00;;;;;;;18.16;44.45;98744.06;4836761;29;20248;-84
2022/02/12 10:23:31;;;;;;;3.27;2.70;;;;;;;18.17;44.99;98744.16;4824446;29;20301;-87
2022/02/12 10:26:03;;;;;;;4.00;2.83;;;;;;;18.48;44.70;98785.13;4837345;29;20253;-83
2022/02/12 10:28:48;;;;;;;3.07;2.40;;;;;;;18.41;44.83;98764.28;4822931;29;20228;-84
2022/02/12 10:31:15;;;;;;;5.17;2.47;;;;;;;18.34;44.56;98757.91;4827409;29;20303;-84
2022/02/12 10:33:46;;;;;;;3.00;2.60;;;;;;;18.30;44.67;98744.91;4839599;29;20571;-85
2022/02/12 10:36:15;;;;;;;4.83;2.80;;;;;;;18.31;45.01;98759.38;4825211;29;20256;-84
2022/02/12 10:38:52;;;;;;;3.70;2.40;;;;;;;18.29;44.83;98733.84;4839207;29;20232;-84
2022/02/12 10:41:20;;;;;;;3.43;2.50;;;;;;;18.35;45.06;98739.28;4840065;29;20204;-85
2022/02/12 10:43:53;;;;;;;3.47;2.57;;;;;;;18.43;45.08;98755.97;4822838;29;20247;-84
2022/02/12 10:46:20;;;;;;;3.37;2.50;;;;;;;18.50;45.08;98763.16;4819517;29;20221;-84
2022/02/12 10:48:48;;;;;;;2.97;2.40;;;;;;;18.37;45.01;98732.69;4813211;29;20412;-83
2022/02/12 10:51:16;;;;;;;2.87;2.60;;;;;;;18.33;44.89;98727.28;4844269;29;20287;-85
2022/02/12 10:54:17;;;;;;;3.23;2.50;;;;;;;18.51;45.02;98746.25;4822570;29;20304;-85
2022/02/12 10:56:51;;;;;;;2.77;2.03;;;;;;;17.84;45.25;98619.13;4833989;29;20346;-85
2022/02/12 10:59:22;;;;;;;2.70;2.10;;;;;;;18.23;45.18;98693.63;4840119;29;20292;-83
2022/02/12 11:01:49;;;;;;;3.73;2.53;;;;;;;18.43;45.27;98717.78;4837984;29;20242;-86
2022/02/12 11:04:16;;;;;;;2.80;2.30;;;;;;;18.29;45.58;98677.84;4823801;29;20240;-82
2022/02/12 11:06:49;;;;;;;2.60;2.20;;;;;;;18.52;45.25;98714.88;4821243;29;20316;-84
2022/02/12 11:09:16;;;;;;;2.67;2.17;;;;;;;18.30;45.03;98668.56;4806654;29;20824;-84
2022/02/12 11:11:42;;;;;;;5.30;2.47;;;;;;;18.44;45.15;98709.34;4806384;29;20730;-85
2022/02/12 11:14:09;;;;;;;2.80;2.00;;;;;;;18.50;45.34;98706.31;4805082;29;20687;-85
2022/02/12 11:16:36;;;;;;;5.43;2.20;;;;;;;18.36;45.03;98666.38;4834580;29;20343;-84
2022/02/12 11:19:04;;;;;;;2.67;2.10;;;;;;;18.46;45.01;98683.97;4823396;29;20240;-81
2022/02/12 11:21:33;;;;;;;3.77;2.93;;;;;;;18.29;45.00;98652.41;4821679;29;20292;-83
2022/02/12 11:24:00;;;;;;;5.13;2.90;;;;;;;18.38;45.10;98663.16;4823379;29;20286;-85
2022/02/12 11:26:27;;;;;;;2.67;2.20;;;;;;;18.44;45.28;98667.75;4823440;29;20233;-84
2022/02/12 11:28:56;;;;;;;4.53;2.80;;;;;;;18.29;45.46;98633.75;4836468;29;20312;-82
2022/02/12 11:31:29;;;;;;;3.57;2.43;;;;;;;18.33;45.67;98633.13;4818466;29;20244;-83
2022/02/12 11:34:09;;;;;;;3.20;2.33;;;;;;;18.54;45.51;98659.88;4822556;29;20204;-84
2022/02/12 11:36:36;;;;;;;3.20;2.70;;;;;;;18.43;45.77;98643.06;4824707;29;20649;-82
2022/02/12 11:39:08;;;;;;;4.40;2.90;;;;;;;18.40;45.36;98632.72;4823225;29;20283;-83
2022/02/12 11:41:36;;;;;;;6.33;3.00;;;;;;;18.32;45.30;98616.09;4833867;29;20243;-85
2022/02/12 11:44:02;;;;;;;3.47;2.90;;;;;;;18.30;45.76;98615.13;4823056;29;20283;-84
2022/02/12 11:46:50;;;;;;;5.10;3.03;;;;;;;18.53;44.25;98635.22;4821815;29;20232;-84
2022/02/12 11:49:27;;;;;;;8.43;4.00;;;;;;;18.18;43.47;98572.88;4836128;29;20311;-84
2022/02/12 11:52:04;;;;;;;5.87;3.77;;;;;;;18.34;43.69;98599.22;4832167;29;20666;-86
2022/02/12 11:54:43;;;;;;;5.20;3.37;;;;;;;18.50;44.07;98624.84;4817965;29;20236;-85
2022/02/12 11:57:31;;;;;;;3.73;3.33;;;;;;;18.16;44.38;98565.97;4819172;29;20248;-85
2022/02/12 12:00:00;;;;;;;5.80;3.33;;;;;;;18.49;44.62;98618.88;4829105;29;20244;-86
2022/02/12 12:02:39;;;;;;;4.57;3.20;;;;;;;18.27;44.64;98572.56;4819487;29;20244;-84
2022/02/12 12:05:15;;;;;;;5.57;3.60;;;;;;;18.48;44.84;98606.06;4835496;29;20255;-85
2022/02/12 12:08:07;;;;;;;4.60;3.50;;;;;;;18.47;44.84;98599.22;4837671;29;20291;-85
2022/02/12 12:10:35;;;;;;;8.23;3.37;;;;;;;18.14;44.89;98542.97;4837219;29;20243;-84
2022/02/12 12:13:11;;;;;;;3.50;2.83;;;;;;;18.47;44.86;98594.13;4821615;29;20243;-84
2022/02/12 12:15:39;;;;;;;4.73;3.20;;;;;;;18.25;45.32;98569.06;4836955;29;20999;-85
2022/02/12 12:18:07;;;;;;;4.00;3.13;;;;;;;18.21;45.00;98551.88;4836373;29;20260;-84
2022/02/12 12:20:34;;;;;;;4.43;3.03;;;;;;;18.47;45.28;98591.59;4821254;29;20246;-84
2022/02/12 12:23:03;;;;;;;5.40;3.20;;;;;;;18.24;45.30;98537.63;4835890;29;20212;-85
2022/02/12 12:25:29;;;;;;;5.20;3.03;;;;;;;18.12;44.92;98524.19;4821343;29;20319;-85
2022/02/12 12:27:57;;;;;;;5.17;3.27;;;;;;;18.15;45.26;98518.44;4835901;29;20294;-84
2022/02/12 12:30:44;;;;;;;4.33;3.00;;;;;;;18.09;44.93;98507.91;4820869;29;20239;-86
2022/02/12 12:33:10;;;;;;;4.83;2.90;;;;;;;18.37;45.09;98557.06;4838731;29;20555;-84
2022/02/12 12:35:37;;;;;;;5.77;3.20;;;;;;;18.23;45.33;98528.25;4839476;29;20275;-84
2022/02/12 12:38:06;;;;;;;3.93;2.73;;;;;;;18.40;45.31;98558.91;4839415;29;20921;-86
2022/02/12 12:40:34;;;;;;;5.73;2.93;;;;;;;18.31;45.14;98527.81;4839224;29;20240;-84
2022/02/12 12:43:06;;;;;;;3.87;2.60;;;;;;;18.23;45.36;98508.69;4824048;29;20208;-85
2022/02/12 12:45:39;;;;;;;3.27;2.67;;;;;;;18.23;45.15;98515.53;4839520;29;20323;-84